createdAt,value
2017-04-22T00:00:49.670Z,0
2017-04-22T00:01:49.704Z,0
2017-04-22T00:02:50.056Z,0
2017-04-22T00:03:50.090Z,0
2017-04-22T00:04:49.509Z,0
2017-04-22T00:05:49.858Z,0
2017-04-22T00:06:49.879Z,0
2017-04-22T00:07:49.917Z,0
2017-04-22T00:08:49.654Z,0
2017-04-22T00:09:49.681Z,0
2017-04-22T00:10:50.029Z,0
2017-04-22T00:11:50.175Z,0
2017-04-22T00:12:50.335Z,0
2017-04-22T00:13:50.445Z,0
2017-04-22T00:14:50.504Z,0
2017-04-22T00:15:50.207Z,0
2017-04-22T00:16:50.258Z,0
2017-04-22T00:17:50.585Z,0
2017-04-22T00:18:50.625Z,0
2017-04-22T00:19:50.498Z,0
2017-04-22T00:20:50.425Z,0
2017-04-22T00:21:50.149Z,0
2017-04-22T00:22:50.688Z,0
2017-04-22T00:23:50.202Z,0
2017-04-22T00:24:50.238Z,0
2017-04-22T00:25:50.261Z,0
2017-04-22T00:26:50.605Z,0
2017-04-22T00:27:50.641Z,0
2017-04-22T00:28:50.693Z,0
2017-04-22T00:29:51.335Z,0
2017-04-22T00:30:50.747Z,0
2017-04-22T00:31:50.792Z,0
2017-04-22T00:32:51.133Z,0
2017-04-22T00:33:51.171Z,0
2017-04-22T00:34:51.196Z,0
2017-04-22T00:35:51.245Z,0
2017-04-22T00:36:50.668Z,0
2017-04-22T00:37:50.698Z,0
2017-04-22T00:38:50.741Z,0
2017-04-22T00:39:50.789Z,0
2017-04-22T00:40:51.118Z,0
2017-04-22T00:41:51.454Z,0
2017-04-22T00:42:51.492Z,0
2017-04-22T00:43:51.529Z,0
2017-04-22T00:44:51.248Z,0
2017-04-22T00:45:51.177Z,0
2017-04-22T00:46:51.020Z,0
2017-04-22T00:47:51.975Z,0
2017-04-22T00:48:51.709Z,0
2017-04-22T00:49:51.439Z,0
2017-04-22T00:50:51.170Z,0
2017-04-22T00:51:51.812Z,0
2017-04-22T00:52:52.152Z,0
2017-04-22T00:53:51.602Z,0
2017-04-22T00:54:51.652Z,0
2017-04-22T00:55:51.351Z,0
2017-04-22T00:56:51.381Z,0
2017-04-22T00:57:51.728Z,0
2017-04-22T00:58:52.068Z,0
2017-04-22T00:59:51.791Z,0
2017-04-22T01:00:51.827Z,0
2017-04-22T01:01:51.913Z,0
2017-04-22T01:02:51.912Z,0
2017-04-22T01:03:51.944Z,0
2017-04-22T01:04:51.984Z,0
2017-04-22T01:05:52.618Z,0
2017-04-22T01:06:52.349Z,0
2017-04-22T01:07:51.786Z,0
2017-04-22T01:08:52.129Z,0
2017-04-22T01:09:52.156Z,0
2017-04-22T01:10:51.888Z,0
2017-04-22T01:11:52.535Z,0
2017-04-22T01:12:52.277Z,0
2017-04-22T01:13:52.908Z,0
2017-04-22T01:14:52.341Z,0
2017-04-22T01:15:52.367Z,0
2017-04-22T01:16:52.106Z,0
2017-04-22T01:17:52.445Z,0
2017-04-22T01:18:52.363Z,0
2017-04-22T01:19:52.213Z,0
2017-04-22T01:20:52.547Z,0
2017-04-22T01:21:52.281Z,0
2017-04-22T01:22:52.350Z,0
2017-04-22T01:23:52.967Z,0
2017-04-22T01:24:52.689Z,0
2017-04-22T01:25:52.419Z,0
2017-04-22T01:26:52.771Z,0
2017-04-22T01:27:52.500Z,0
2017-04-22T01:28:52.548Z,0
2017-04-22T01:29:52.569Z,0
2017-04-22T01:30:53.519Z,0
2017-04-22T01:31:52.943Z,0
2017-04-22T01:32:53.587Z,0
2017-04-22T01:33:53.031Z,0
2017-04-22T01:34:52.753Z,0
2017-04-22T01:35:52.790Z,0
2017-04-22T01:36:52.835Z,0
2017-04-22T01:37:53.471Z,0
2017-04-22T01:38:53.201Z,0
2017-04-22T01:39:52.931Z,0
2017-04-22T01:40:53.592Z,0
2017-04-22T01:41:53.601Z,0
2017-04-22T01:42:53.330Z,0
2017-04-22T01:43:53.681Z,0
2017-04-22T01:44:54.215Z,0
2017-04-22T01:45:53.145Z,0
2017-04-22T01:46:53.183Z,0
2017-04-22T01:47:53.519Z,0
2017-04-22T01:48:53.856Z,0
2017-04-22T01:49:53.292Z,0
2017-04-22T01:50:53.632Z,0
2017-04-22T01:51:53.963Z,0
2017-04-22T01:52:54.049Z,0
2017-04-22T01:53:54.036Z,0
2017-04-22T01:54:54.066Z,0
2017-04-22T01:55:53.503Z,0
2017-04-22T01:56:53.531Z,0
2017-04-22T01:57:53.564Z,0
2017-04-22T01:58:53.915Z,0
2017-04-22T01:59:53.660Z,0
2017-04-22T02:00:54.135Z,0
2017-04-22T02:01:54.017Z,0
2017-04-22T02:02:53.759Z,0
2017-04-22T02:03:54.703Z,0
2017-04-22T02:04:54.426Z,0
2017-04-22T02:05:53.856Z,0
2017-04-22T02:06:53.899Z,0
2017-04-22T02:07:53.928Z,0
2017-04-22T02:08:53.961Z,0
2017-04-22T02:09:54.612Z,0
2017-04-22T02:10:54.334Z,0
2017-04-22T02:11:54.671Z,0
2017-04-22T02:12:54.705Z,0
2017-04-22T02:13:54.748Z,0
2017-04-22T02:14:54.178Z,0
2017-04-22T02:15:54.214Z,0
2017-04-22T02:16:54.248Z,0
2017-04-22T02:17:55.189Z,0
2017-04-22T02:18:54.981Z,0
2017-04-22T02:19:54.353Z,0
2017-04-22T02:20:54.389Z,0
2017-04-22T02:21:54.723Z,0
2017-04-22T02:22:54.758Z,0
2017-04-22T02:23:54.498Z,0
2017-04-22T02:24:54.838Z,0
2017-04-22T02:25:54.870Z,0
2017-04-22T02:26:55.203Z,0
2017-04-22T02:27:55.238Z,0
2017-04-22T02:28:54.980Z,0
2017-04-22T02:29:55.616Z,0
2017-04-22T02:30:55.052Z,0
2017-04-22T02:31:55.078Z,0
2017-04-22T02:32:55.731Z,0
2017-04-22T02:33:55.156Z,0
2017-04-22T02:34:55.288Z,0
2017-04-22T02:35:54.941Z,0
2017-04-22T02:36:54.958Z,0
2017-04-22T02:37:55.299Z,0
2017-04-22T02:38:55.670Z,0
2017-04-22T02:39:55.064Z,0
2017-04-22T02:40:55.104Z,0
2017-04-22T02:41:55.147Z,0
2017-04-22T02:42:55.567Z,0
2017-04-22T02:43:55.821Z,0
2017-04-22T02:44:55.545Z,0
2017-04-22T02:45:55.282Z,0
2017-04-22T02:46:55.312Z,0
2017-04-22T02:47:55.666Z,0
2017-04-22T02:48:55.684Z,0
2017-04-22T02:49:55.424Z,0
2017-04-22T02:50:55.457Z,0
2017-04-22T02:51:56.450Z,0
2017-04-22T02:52:56.233Z,0
2017-04-22T02:53:55.875Z,0
2017-04-22T02:54:55.902Z,0
2017-04-22T02:55:55.936Z,0
2017-04-22T02:56:55.975Z,0
2017-04-22T02:57:56.334Z,0
2017-04-22T02:58:56.346Z,0
2017-04-22T02:59:55.775Z,0
2017-04-22T03:00:56.111Z,0
2017-04-22T03:01:55.856Z,0
2017-04-22T03:02:55.880Z,0
2017-04-22T03:03:56.215Z,0
2017-04-22T03:04:56.567Z,0
2017-04-22T03:05:56.301Z,0
2017-04-22T03:06:56.032Z,0
2017-04-22T03:07:56.361Z,0
2017-04-22T03:08:56.926Z,0
2017-04-22T03:09:56.436Z,0
2017-04-22T03:10:56.771Z,0
2017-04-22T03:11:56.209Z,0
2017-04-22T03:12:56.237Z,0
2017-04-22T03:13:56.281Z,0
2017-04-22T03:14:56.301Z,0
2017-04-22T03:15:56.663Z,0
2017-04-22T03:16:56.370Z,0
2017-04-22T03:17:56.710Z,0
2017-04-22T03:18:56.447Z,0
2017-04-22T03:19:57.090Z,0
2017-04-22T03:20:56.523Z,0
2017-04-22T03:21:56.852Z,0
2017-04-22T03:22:57.197Z,0
2017-04-22T03:23:56.935Z,0
2017-04-22T03:24:56.970Z,0
2017-04-22T03:25:57.028Z,0
2017-04-22T03:26:57.207Z,0
2017-04-22T03:27:57.371Z,0
2017-04-22T03:28:56.933Z,0
2017-04-22T03:29:57.486Z,0
2017-04-22T03:30:56.875Z,0
2017-04-22T03:31:56.900Z,0
2017-04-22T03:32:57.550Z,0
2017-04-22T03:33:57.266Z,0
2017-04-22T03:34:57.345Z,0
2017-04-22T03:35:57.044Z,0
2017-04-22T03:36:57.679Z,0
2017-04-22T03:37:57.729Z,0
2017-04-22T03:38:57.457Z,0
2017-04-22T03:39:57.781Z,0
2017-04-22T03:40:57.818Z,0
2017-04-22T03:41:57.558Z,0
2017-04-22T03:42:57.589Z,0
2017-04-22T03:43:57.680Z,0
2017-04-22T03:44:57.952Z,0
2017-04-22T03:45:57.689Z,0
2017-04-22T03:46:57.737Z,0
2017-04-22T03:47:57.773Z,0
2017-04-22T03:48:57.490Z,0
2017-04-22T03:49:57.830Z,0
2017-04-22T03:50:57.866Z,0
2017-04-22T03:51:57.596Z,0
2017-04-22T03:52:57.931Z,0
2017-04-22T03:53:57.988Z,0
2017-04-22T03:54:58.010Z,0
2017-04-22T03:55:58.047Z,0
2017-04-22T03:56:57.779Z,0
2017-04-22T03:57:58.304Z,0
2017-04-22T03:58:57.859Z,0
2017-04-22T03:59:58.183Z,0
2017-04-22T04:00:57.907Z,0
2017-04-22T04:01:58.147Z,0
2017-04-22T04:02:57.975Z,0
2017-04-22T04:03:58.042Z,0
2017-04-22T04:04:58.052Z,0
2017-04-22T04:05:58.079Z,0
2017-04-22T04:06:58.416Z,0
2017-04-22T04:07:58.154Z,0
2017-04-22T04:08:58.490Z,0
2017-04-22T04:09:58.230Z,5
2017-04-22T04:10:58.960Z,5
2017-04-22T04:11:58.290Z,5
2017-04-22T04:12:59.232Z,5
2017-04-22T04:13:58.370Z,10
2017-04-22T04:14:58.392Z,5
2017-04-22T04:15:59.030Z,5
2017-04-22T04:16:58.467Z,5
2017-04-22T04:17:59.097Z,5
2017-04-22T04:18:58.836Z,5
2017-04-22T04:19:58.877Z,10
2017-04-22T04:20:58.907Z,10
2017-04-22T04:21:58.637Z,10
2017-04-22T04:22:59.272Z,10
2017-04-22T04:23:59.000Z,10
2017-04-22T04:24:59.039Z,10
2017-04-22T04:25:59.374Z,10
2017-04-22T04:26:59.118Z,10
2017-04-22T04:27:58.843Z,10
2017-04-22T04:28:59.173Z,10
2017-04-22T04:29:58.914Z,10
2017-04-22T04:30:59.243Z,15
2017-04-22T04:31:58.976Z,15
2017-04-22T04:32:59.319Z,15
2017-04-22T04:33:59.661Z,15
2017-04-22T04:34:59.382Z,15
2017-04-22T04:35:59.130Z,10
2017-04-22T04:36:59.580Z,15
2017-04-22T04:37:59.194Z,15
2017-04-22T04:38:59.527Z,20
2017-04-22T04:39:59.559Z,25
2017-04-22T04:40:59.589Z,20
2017-04-22T04:41:59.337Z,20
2017-04-22T04:42:59.965Z,20
2017-04-22T04:43:59.398Z,20
2017-04-22T04:44:59.430Z,25
2017-04-22T04:46:00.334Z,25
2017-04-22T04:47:00.109Z,20
2017-04-22T04:47:59.533Z,20
2017-04-22T04:48:59.877Z,20
2017-04-22T04:49:59.608Z,25
2017-04-22T04:50:59.938Z,30
2017-04-22T04:51:59.668Z,30
2017-04-22T04:53:00.005Z,25
2017-04-22T04:54:00.042Z,25
2017-04-22T04:55:00.086Z,25
2017-04-22T04:56:00.106Z,35
2017-04-22T04:57:00.466Z,40
2017-04-22T04:57:59.884Z,45
2017-04-22T04:59:00.230Z,45
2017-04-22T05:00:00.694Z,50
2017-04-22T05:00:59.981Z,50
2017-04-22T05:02:00.020Z,40
2017-04-22T05:03:00.048Z,35
2017-04-22T05:04:00.384Z,35
2017-04-22T05:05:00.781Z,30
2017-04-22T05:06:00.467Z,25
2017-04-22T05:07:00.495Z,30
2017-04-22T05:08:00.232Z,35
2017-04-22T05:09:00.265Z,45
2017-04-22T05:10:00.910Z,45
2017-04-22T05:11:00.634Z,45
2017-04-22T05:12:00.369Z,45
2017-04-22T05:13:00.696Z,55
2017-04-22T05:14:00.731Z,55
2017-04-22T05:15:01.382Z,55
2017-04-22T05:16:00.810Z,60
2017-04-22T05:17:00.532Z,75
2017-04-22T05:18:00.878Z,85
2017-04-22T05:19:01.229Z,90
2017-04-22T05:20:00.938Z,75
2017-04-22T05:21:01.096Z,75
2017-04-22T05:22:01.020Z,80
2017-04-22T05:23:01.057Z,85
2017-04-22T05:24:00.801Z,85
2017-04-22T05:25:01.114Z,85
2017-04-22T05:26:01.453Z,70
2017-04-22T05:27:01.200Z,65
2017-04-22T05:28:01.227Z,80
2017-04-22T05:29:00.959Z,85
2017-04-22T05:30:01.023Z,85
2017-04-22T05:31:01.326Z,85
2017-04-22T05:32:01.062Z,90
2017-04-22T05:33:01.394Z,100
2017-04-22T05:34:01.124Z,95
2017-04-22T05:35:01.169Z,80
2017-04-22T05:36:01.204Z,75
2017-04-22T05:37:01.254Z,90
2017-04-22T05:38:01.269Z,105
2017-04-22T05:39:01.310Z,95
2017-04-22T05:40:01.955Z,80
2017-04-22T05:41:01.911Z,65
2017-04-22T05:42:01.425Z,70
2017-04-22T05:43:01.455Z,75
2017-04-22T05:44:02.098Z,60
2017-04-22T05:45:02.127Z,65
2017-04-22T05:46:01.850Z,60
2017-04-22T05:47:01.606Z,55
2017-04-22T05:48:02.256Z,55
2017-04-22T05:49:01.956Z,55
2017-04-22T05:50:02.312Z,60
2017-04-22T05:51:01.723Z,85
2017-04-22T05:52:02.062Z,80
2017-04-22T05:53:02.101Z,85
2017-04-22T05:54:02.450Z,105
2017-04-22T05:55:02.171Z,95
2017-04-22T05:56:01.912Z,95
2017-04-22T05:57:01.958Z,110
2017-04-22T05:58:02.584Z,100
2017-04-22T05:59:02.619Z,90
2017-04-22T06:00:02.810Z,85
2017-04-22T06:01:02.070Z,70
2017-04-22T06:02:02.420Z,60
2017-04-22T06:03:03.003Z,60
2017-04-22T06:04:02.782Z,70
2017-04-22T06:05:02.836Z,75
2017-04-22T06:06:02.561Z,100
2017-04-22T06:07:02.597Z,90
2017-04-22T06:08:02.632Z,95
2017-04-22T06:09:02.988Z,125
2017-04-22T06:10:02.698Z,160
2017-04-22T06:11:02.736Z,140
2017-04-22T06:12:02.463Z,140
2017-04-22T06:13:03.101Z,125
2017-04-22T06:14:02.835Z,125
2017-04-22T06:15:03.199Z,170
2017-04-22T06:16:02.611Z,185
2017-04-22T06:17:02.959Z,165
2017-04-22T06:18:02.673Z,155
2017-04-22T06:19:03.355Z,165
2017-04-22T06:20:03.050Z,180
2017-04-22T06:21:02.808Z,150
2017-04-22T06:22:02.815Z,140
2017-04-22T06:23:03.148Z,125
2017-04-22T06:24:03.491Z,110
2017-04-22T06:25:03.233Z,140
2017-04-22T06:26:02.951Z,145
2017-04-22T06:27:02.997Z,160
2017-04-22T06:28:03.636Z,190
2017-04-22T06:29:03.672Z,240
2017-04-22T06:30:03.404Z,270
2017-04-22T06:31:03.437Z,270
2017-04-22T06:32:03.790Z,215
2017-04-22T06:33:03.502Z,265
2017-04-22T06:34:03.543Z,370
2017-04-22T06:35:03.581Z,355
2017-04-22T06:36:03.616Z,320
2017-04-22T06:37:03.964Z,335
2017-04-22T06:38:03.682Z,350
2017-04-22T06:39:03.418Z,325
2017-04-22T06:40:03.910Z,315
2017-04-22T06:41:03.490Z,270
2017-04-22T06:42:03.531Z,230
2017-04-22T06:43:04.176Z,185
2017-04-22T06:44:03.915Z,140
2017-04-22T06:45:04.249Z,140
2017-04-22T06:46:03.690Z,140
2017-04-22T06:47:04.033Z,205
2017-04-22T06:48:04.054Z,175
2017-04-22T06:49:04.388Z,185
2017-04-22T06:50:04.121Z,195
2017-04-22T06:51:03.852Z,175
2017-04-22T06:52:04.141Z,200
2017-04-22T06:53:04.224Z,275
2017-04-22T06:54:03.974Z,335
2017-04-22T06:55:04.315Z,355
2017-04-22T06:56:04.035Z,385
2017-04-22T06:57:04.069Z,330
2017-04-22T06:58:04.548Z,435
2017-04-22T06:59:04.768Z,760
2017-04-22T07:00:04.492Z,700
2017-04-22T07:01:04.215Z,850
2017-04-22T07:02:04.551Z,950
2017-04-22T07:03:04.594Z,995
2017-04-22T07:04:04.564Z,1080
2017-04-22T07:05:04.677Z,1185
2017-04-22T07:06:04.714Z,1150
2017-04-22T07:07:05.074Z,790
2017-04-22T07:08:05.108Z,780
2017-04-22T07:09:05.142Z,790
2017-04-22T07:10:04.869Z,795
2017-04-22T07:11:04.906Z,775
2017-04-22T07:12:04.952Z,605
2017-04-22T07:13:05.321Z,1270
2017-04-22T07:14:05.344Z,570
2017-04-22T07:15:04.761Z,945
2017-04-22T07:16:05.110Z,695
2017-04-22T07:17:04.864Z,465
2017-04-22T07:18:05.192Z,555
2017-04-22T07:19:04.930Z,560
2017-04-22T07:20:05.571Z,660
2017-04-22T07:21:05.317Z,605
2017-04-22T07:22:05.340Z,1010
2017-04-22T07:23:05.705Z,450
2017-04-22T07:24:05.737Z,495
2017-04-22T07:25:05.176Z,485
2017-04-22T07:26:05.518Z,1395
2017-04-22T07:27:05.559Z,1455
2017-04-22T07:28:05.590Z,1430
2017-04-22T07:29:05.331Z,1520
2017-04-22T07:30:05.366Z,350
2017-04-22T07:31:05.427Z,270
2017-04-22T07:32:05.451Z,275
2017-04-22T07:33:06.408Z,195
2017-04-22T07:34:06.157Z,270
2017-04-22T07:35:06.127Z,1455
2017-04-22T07:36:05.628Z,400
2017-04-22T07:37:05.962Z,455
2017-04-22T07:38:06.313Z,1690
2017-04-22T07:39:06.362Z,320
2017-04-22T07:40:05.789Z,285
2017-04-22T07:41:06.643Z,315
2017-04-22T07:42:06.168Z,350
2017-04-22T07:43:06.208Z,400
2017-04-22T07:44:05.942Z,385
2017-04-22T07:45:06.325Z,1650
2017-04-22T07:46:06.631Z,500
2017-04-22T07:47:06.068Z,600
2017-04-22T07:48:06.713Z,540
2017-04-22T07:49:06.619Z,820
2017-04-22T07:50:06.809Z,1800
2017-04-22T07:51:07.146Z,1805
2017-04-22T07:52:06.880Z,1785
2017-04-22T07:53:06.932Z,1725
2017-04-22T07:54:06.664Z,1710
2017-04-22T07:55:06.710Z,1730
2017-04-22T07:56:06.454Z,1740
2017-04-22T07:57:07.103Z,1700
2017-04-22T07:58:06.636Z,480
2017-04-22T07:59:06.880Z,330
2017-04-22T08:00:07.234Z,1635
2017-04-22T08:01:06.672Z,1705
2017-04-22T08:02:06.714Z,1090
2017-04-22T08:03:06.763Z,1685
2017-04-22T08:04:06.802Z,1740
2017-04-22T08:05:07.153Z,1685
2017-04-22T08:06:06.892Z,1670
2017-04-22T08:07:07.236Z,1725
2017-04-22T08:08:07.306Z,1800
2017-04-22T08:09:07.640Z,1965
2017-04-22T08:10:07.106Z,2005
2017-04-22T08:11:07.112Z,2070
2017-04-22T08:12:07.476Z,1385
2017-04-22T08:13:07.522Z,2235
2017-04-22T08:14:07.274Z,855
2017-04-22T08:15:07.333Z,560
2017-04-22T08:16:07.362Z,495
2017-04-22T08:17:07.698Z,435
2017-04-22T08:18:07.747Z,260
2017-04-22T08:19:08.092Z,220
2017-04-22T08:20:08.447Z,225
2017-04-22T08:21:07.573Z,245
2017-04-22T08:22:08.248Z,420
2017-04-22T08:23:07.675Z,1355
2017-04-22T08:24:08.167Z,175
2017-04-22T08:25:08.160Z,235
2017-04-22T08:26:07.800Z,230
2017-04-22T08:27:08.455Z,305
2017-04-22T08:28:08.495Z,460
2017-04-22T08:29:07.920Z,1415
2017-04-22T08:30:08.266Z,2245
2017-04-22T08:31:08.328Z,1375
2017-04-22T08:32:08.957Z,925
2017-04-22T08:33:08.691Z,2555
2017-04-22T08:34:08.772Z,645
2017-04-22T08:35:08.275Z,515
2017-04-22T08:36:08.517Z,450
2017-04-22T08:37:08.554Z,325
2017-04-22T08:38:08.604Z,245
2017-04-22T08:39:08.639Z,215
2017-04-22T08:40:08.684Z,280
2017-04-22T08:41:08.728Z,405
2017-04-22T08:42:08.754Z,265
2017-04-22T08:43:09.110Z,300
2017-04-22T08:44:08.850Z,490
2017-04-22T08:45:08.906Z,2015
2017-04-22T08:46:08.932Z,2210
2017-04-22T08:47:08.684Z,470
2017-04-22T08:48:08.705Z,445
2017-04-22T08:49:09.042Z,520
2017-04-22T08:50:08.785Z,865
2017-04-22T08:51:08.827Z,995
2017-04-22T08:52:08.864Z,1160
2017-04-22T08:53:08.907Z,2560
2017-04-22T08:54:09.245Z,810
2017-04-22T08:55:09.281Z,2125
2017-04-22T08:56:09.333Z,2280
2017-04-22T08:57:09.670Z,855
2017-04-22T08:58:09.112Z,785
2017-04-22T08:59:09.455Z,1505
2017-04-22T09:00:09.495Z,2925
2017-04-22T09:01:09.243Z,770
2017-04-22T09:02:09.283Z,1535
2017-04-22T09:03:09.625Z,790
2017-04-22T09:04:09.979Z,455
2017-04-22T09:05:09.424Z,305
2017-04-22T09:06:09.762Z,220
2017-04-22T09:07:09.801Z,280
2017-04-22T09:08:09.862Z,350
2017-04-22T09:09:09.602Z,450
2017-04-22T09:10:10.236Z,770
2017-04-22T09:11:10.284Z,360
2017-04-22T09:12:10.018Z,480
2017-04-22T09:13:10.663Z,415
2017-04-22T09:14:10.406Z,315
2017-04-22T09:15:10.462Z,235
2017-04-22T09:16:09.881Z,185
2017-04-22T09:17:10.530Z,170
2017-04-22T09:18:09.960Z,165
2017-04-22T09:19:10.315Z,140
2017-04-22T09:20:10.047Z,130
2017-04-22T09:21:10.089Z,130
2017-04-22T09:22:10.126Z,160
2017-04-22T09:23:10.170Z,220
2017-04-22T09:24:10.510Z,230
2017-04-22T09:25:11.152Z,260
2017-04-22T09:26:10.583Z,390
2017-04-22T09:27:10.321Z,795
2017-04-22T09:28:10.666Z,610
2017-04-22T09:29:10.697Z,2255
2017-04-22T09:30:10.444Z,695
2017-04-22T09:31:10.777Z,495
2017-04-22T09:32:11.127Z,485
2017-04-22T09:33:11.169Z,380
2017-04-22T09:34:10.593Z,365
2017-04-22T09:35:10.948Z,375
2017-04-22T09:36:10.672Z,400
2017-04-22T09:37:11.022Z,310
2017-04-22T09:38:10.755Z,275
2017-04-22T09:39:11.100Z,275
2017-04-22T09:40:11.439Z,250
2017-04-22T09:41:11.481Z,230
2017-04-22T09:42:11.574Z,320
2017-04-22T09:43:11.560Z,395
2017-04-22T09:44:11.295Z,525
2017-04-22T09:45:11.335Z,725
2017-04-22T09:46:11.062Z,500
2017-04-22T09:47:11.410Z,505
2017-04-22T09:48:11.143Z,510
2017-04-22T09:49:11.801Z,660
2017-04-22T09:50:11.225Z,620
2017-04-22T09:51:11.587Z,1395
2017-04-22T09:52:11.304Z,1025
2017-04-22T09:53:11.660Z,515
2017-04-22T09:54:11.380Z,430
2017-04-22T09:55:11.738Z,385
2017-04-22T09:56:11.818Z,420
2017-04-22T09:57:11.851Z,465
2017-04-22T09:58:12.157Z,410
2017-04-22T09:59:11.885Z,435
2017-04-22T10:00:11.634Z,365
2017-04-22T10:01:11.655Z,315
2017-04-22T10:02:12.309Z,355
2017-04-22T10:03:11.745Z,380
2017-04-22T10:04:11.776Z,580
2017-04-22T10:05:11.851Z,625
2017-04-22T10:06:11.849Z,2515
2017-04-22T10:07:11.890Z,1095
2017-04-22T10:08:12.239Z,1335
2017-04-22T10:09:12.888Z,2555
2017-04-22T10:10:12.044Z,2035
2017-04-22T10:11:12.351Z,880
2017-04-22T10:12:12.397Z,1065
2017-04-22T10:13:12.183Z,755
2017-04-22T10:14:12.779Z,660
2017-04-22T10:15:12.522Z,550
2017-04-22T10:16:12.258Z,505
2017-04-22T10:17:12.911Z,545
2017-04-22T10:18:12.339Z,515
2017-04-22T10:19:12.697Z,525
2017-04-22T10:20:12.724Z,540
2017-04-22T10:21:12.808Z,515
2017-04-22T10:22:12.811Z,490
2017-04-22T10:23:12.848Z,595
2017-04-22T10:24:12.904Z,1230
2017-04-22T10:25:12.934Z,780
2017-04-22T10:26:13.274Z,1980
2017-04-22T10:27:13.008Z,3050
2017-04-22T10:28:12.784Z,1110
2017-04-22T10:29:14.024Z,2270
2017-04-22T10:30:12.838Z,1175
2017-04-22T10:31:13.179Z,655
2017-04-22T10:32:13.230Z,790
2017-04-22T10:33:13.586Z,2875
2017-04-22T10:34:13.013Z,1395
2017-04-22T10:35:13.355Z,675
2017-04-22T10:36:13.399Z,540
2017-04-22T10:37:13.132Z,410
2017-04-22T10:38:13.177Z,595
2017-04-22T10:39:14.142Z,1810
2017-04-22T10:40:13.574Z,2745
2017-04-22T10:41:13.917Z,845
2017-04-22T10:42:13.356Z,480
2017-04-22T10:43:14.000Z,350
2017-04-22T10:44:13.765Z,415
2017-04-22T10:45:13.785Z,335
2017-04-22T10:46:13.918Z,2430
2017-04-22T10:47:13.568Z,2690
2017-04-22T10:48:14.225Z,715
2017-04-22T10:49:13.652Z,575
2017-04-22T10:50:13.704Z,425
2017-04-22T10:51:14.043Z,265
2017-04-22T10:52:13.792Z,200
2017-04-22T10:53:13.859Z,275
2017-04-22T10:54:13.864Z,195
2017-04-22T10:55:14.088Z,290
2017-04-22T10:56:13.941Z,1655
2017-04-22T10:57:14.296Z,320
2017-04-22T10:58:14.025Z,290
2017-04-22T10:59:14.395Z,2285
2017-04-22T11:00:14.121Z,2115
2017-04-22T11:01:14.448Z,700
2017-04-22T11:02:14.497Z,1505
2017-04-22T11:03:14.593Z,865
2017-04-22T11:04:14.578Z,335
2017-04-22T11:05:14.633Z,395
2017-04-22T11:06:14.359Z,1750
2017-04-22T11:07:14.714Z,2395
2017-04-22T11:08:14.457Z,720
2017-04-22T11:09:14.799Z,335
2017-04-22T11:10:14.530Z,365
2017-04-22T11:11:14.625Z,350
2017-04-22T11:12:14.631Z,405
2017-04-22T11:13:15.269Z,385
2017-04-22T11:14:15.609Z,245
2017-04-22T11:15:14.742Z,400
2017-04-22T11:16:14.788Z,240
2017-04-22T11:17:15.427Z,345
2017-04-22T11:18:14.875Z,395
2017-04-22T11:19:14.920Z,375
2017-04-22T11:20:14.954Z,320
2017-04-22T11:21:15.606Z,310
2017-04-22T11:22:15.046Z,300
2017-04-22T11:23:15.398Z,350
2017-04-22T11:24:15.427Z,505
2017-04-22T11:25:15.168Z,395
2017-04-22T11:26:15.509Z,330
2017-04-22T11:27:15.581Z,355
2017-04-22T11:28:15.600Z,340
2017-04-22T11:29:15.634Z,325
2017-04-22T11:30:15.991Z,260
2017-04-22T11:31:15.713Z,200
2017-04-22T11:32:15.764Z,165
2017-04-22T11:33:15.793Z,190
2017-04-22T11:34:15.536Z,255
2017-04-22T11:35:15.875Z,260
2017-04-22T11:36:15.905Z,215
2017-04-22T11:37:15.655Z,175
2017-04-22T11:38:16.600Z,180
2017-04-22T11:39:16.340Z,190
2017-04-22T11:40:15.773Z,195
2017-04-22T11:41:15.814Z,185
2017-04-22T11:42:15.857Z,180
2017-04-22T11:43:16.184Z,315
2017-04-22T11:44:16.275Z,420
2017-04-22T11:45:15.966Z,455
2017-04-22T11:46:16.006Z,425
2017-04-22T11:47:16.039Z,410
2017-04-22T11:48:16.088Z,410
2017-04-22T11:49:16.773Z,360
2017-04-22T11:50:16.474Z,275
2017-04-22T11:51:16.501Z,215
2017-04-22T11:52:16.550Z,175
2017-04-22T11:53:16.579Z,155
2017-04-22T11:54:17.236Z,125
2017-04-22T11:55:16.357Z,90
2017-04-22T11:56:16.703Z,90
2017-04-22T11:57:16.744Z,75
2017-04-22T11:58:17.089Z,85
2017-04-22T11:59:16.556Z,95
2017-04-22T12:00:16.854Z,135
2017-04-22T12:01:17.204Z,160
2017-04-22T12:02:16.950Z,175
2017-04-22T12:03:17.579Z,260
2017-04-22T12:04:16.711Z,335
2017-04-22T12:05:16.740Z,330
2017-04-22T12:06:17.146Z,355
2017-04-22T12:07:16.835Z,380
2017-04-22T12:08:17.176Z,355
2017-04-22T12:09:17.215Z,370
2017-04-22T12:10:17.235Z,380
2017-04-22T12:11:16.967Z,335
2017-04-22T12:12:17.308Z,310
2017-04-22T12:13:17.366Z,275
2017-04-22T12:14:17.700Z,290
2017-04-22T12:15:17.424Z,315
2017-04-22T12:16:17.202Z,335
2017-04-22T12:17:17.204Z,345
2017-04-22T12:18:17.268Z,370
2017-04-22T12:19:17.877Z,400
2017-04-22T12:20:17.309Z,380
2017-04-22T12:21:17.669Z,310
2017-04-22T12:22:17.689Z,245
2017-04-22T12:23:17.742Z,220
2017-04-22T12:24:17.766Z,200
2017-04-22T12:25:17.507Z,185
2017-04-22T12:26:17.554Z,185
2017-04-22T12:27:18.185Z,205
2017-04-22T12:28:17.924Z,260
2017-04-22T12:29:17.671Z,230
2017-04-22T12:30:18.189Z,185
2017-04-22T12:31:17.729Z,190
2017-04-22T12:32:18.099Z,215
2017-04-22T12:33:17.859Z,190
2017-04-22T12:34:18.489Z,195
2017-04-22T12:35:17.886Z,180
2017-04-22T12:36:18.225Z,180
2017-04-22T12:37:18.259Z,180
2017-04-22T12:38:18.302Z,175
2017-04-22T12:39:18.369Z,160
2017-04-22T12:40:18.074Z,180
2017-04-22T12:41:18.123Z,205
2017-04-22T12:42:18.783Z,210
2017-04-22T12:43:18.502Z,205
2017-04-22T12:44:18.532Z,215
2017-04-22T12:45:18.730Z,210
2017-04-22T12:46:18.302Z,185
2017-04-22T12:47:18.954Z,170
2017-04-22T12:48:18.676Z,165
2017-04-22T12:49:18.729Z,195
2017-04-22T12:50:18.759Z,235
2017-04-22T12:51:18.801Z,275
2017-04-22T12:52:18.908Z,285
2017-04-22T12:53:19.488Z,295
2017-04-22T12:54:19.210Z,295
2017-04-22T12:55:18.947Z,280
2017-04-22T12:56:18.677Z,260
2017-04-22T12:57:19.625Z,240
2017-04-22T12:58:18.753Z,240
2017-04-22T12:59:19.396Z,245
2017-04-22T13:00:19.124Z,255
2017-04-22T13:01:18.890Z,255
2017-04-22T13:02:18.921Z,240
2017-04-22T13:03:18.939Z,215
2017-04-22T13:04:19.001Z,200
2017-04-22T13:05:19.632Z,175
2017-04-22T13:06:19.658Z,175
2017-04-22T13:07:19.105Z,185
2017-04-22T13:08:19.735Z,210
2017-04-22T13:09:19.793Z,240
2017-04-22T13:10:20.156Z,270
2017-04-22T13:11:19.556Z,300
2017-04-22T13:12:19.589Z,310
2017-04-22T13:13:19.653Z,300
2017-04-22T13:14:19.360Z,290
2017-04-22T13:15:20.006Z,290
2017-04-22T13:16:19.439Z,310
2017-04-22T13:17:20.380Z,310
2017-04-22T13:18:20.156Z,315
2017-04-22T13:19:20.166Z,315
2017-04-22T13:20:20.193Z,310
2017-04-22T13:21:19.630Z,310
2017-04-22T13:22:19.674Z,305
2017-04-22T13:23:19.709Z,300
2017-04-22T13:24:20.357Z,305
2017-04-22T13:25:20.095Z,325
2017-04-22T13:26:19.813Z,305
2017-04-22T13:27:20.457Z,305
2017-04-22T13:28:19.909Z,320
2017-04-22T13:29:20.240Z,315
2017-04-22T13:30:19.979Z,300
2017-04-22T13:31:20.410Z,295
2017-04-22T13:32:20.353Z,285
2017-04-22T13:33:20.085Z,275
2017-04-22T13:34:20.738Z,240
2017-04-22T13:35:20.468Z,210
2017-04-22T13:36:20.499Z,220
2017-04-22T13:37:20.541Z,235
2017-04-22T13:38:20.578Z,235
2017-04-22T13:39:20.344Z,220
2017-04-22T13:40:20.355Z,205
2017-04-22T13:41:20.411Z,195
2017-04-22T13:42:20.729Z,190
2017-04-22T13:43:21.078Z,180
2017-04-22T13:44:21.107Z,185
2017-04-22T13:45:20.844Z,195
2017-04-22T13:46:21.481Z,215
2017-04-22T13:47:21.233Z,230
2017-04-22T13:48:20.657Z,245
2017-04-22T13:49:21.301Z,255
2017-04-22T13:50:20.800Z,270
2017-04-22T13:51:21.388Z,265
2017-04-22T13:52:21.112Z,265
2017-04-22T13:53:21.835Z,260
2017-04-22T13:54:21.184Z,260
2017-04-22T13:55:21.216Z,255
2017-04-22T13:56:20.966Z,275
2017-04-22T13:57:21.299Z,260
2017-04-22T13:58:21.337Z,235
2017-04-22T13:59:21.081Z,205
2017-04-22T14:00:21.714Z,215
2017-04-22T14:01:21.450Z,185
2017-04-22T14:02:21.493Z,140
2017-04-22T14:03:21.527Z,130
2017-04-22T14:04:21.587Z,125
2017-04-22T14:05:21.309Z,125
2017-04-22T14:06:21.946Z,125